sensor_id;sensor_type;location;lat;lon;timestamp;P1;durP1;ratioP1;P2;durP2;ratioP2
59239;SDS011;45010;53.640;10.578;2023-06-19T00:01:56;5.72;;;5.22;;
59239;SDS011;45010;53.640;10.578;2023-06-19T00:04:56;5.80;;;5.28;;
59239;SDS011;45010;53.640;10.578;2023-06-19T00:07:56;6.35;;;5.22;;
59239;SDS011;45010;53.640;10.578;2023-06-19T00:10:57;5.32;;;4.80;;
59239;SDS011;45010;53.640;10.578;2023-06-19T00:13:57;5.78;;;5.18;;
59239;SDS011;45010;53.640;10.578;2023-06-19T00:16:57;5.78;;;5.18;;
59239;SDS011;45010;53.640;10.578;2023-06-19T00:19:59;6.35;;;5.70;;
59239;SDS011;45010;53.640;10.578;2023-06-19T00:22:59;7.65;;;5.55;;
59239;SDS011;45010;53.640;10.578;2023-06-19T00:26:00;7.03;;;5.35;;
59239;SDS011;45010;53.640;10.578;2023-06-19T00:29:01;6.97;;;5.43;;
59239;SDS011;45010;53.640;10.578;2023-06-19T00:32:02;6.57;;;5.10;;
59239;SDS011;45010;53.640;10.578;2023-06-19T00:35:02;6.50;;;5.72;;
59239;SDS011;45010;53.640;10.578;2023-06-19T00:38:04;6.45;;;5.85;;
59239;SDS011;45010;53.640;10.578;2023-06-19T00:41:05;5.80;;;4.93;;
59239;SDS011;45010;53.640;10.578;2023-06-19T00:44:06;6.50;;;5.50;;
59239;SDS011;45010;53.640;10.578;2023-06-19T00:47:06;6.30;;;5.57;;
59239;SDS011;45010;53.640;10.578;2023-06-19T00:50:06;7.20;;;5.40;;
59239;SDS011;45010;53.640;10.578;2023-06-19T00:53:07;5.70;;;5.20;;
59239;SDS011;45010;53.640;10.578;2023-06-19T00:56:08;6.28;;;5.68;;
59239;SDS011;45010;53.640;10.578;2023-06-19T00:59:11;6.07;;;5.47;;
59239;SDS011;45010;53.640;10.578;2023-06-19T01:02:15;6.07;;;5.22;;
59239;SDS011;45010;53.640;10.578;2023-06-19T01:05:16;8.77;;;5.43;;
59239;SDS011;45010;53.640;10.578;2023-06-19T01:11:49;5.50;;;5.00;;
59239;SDS011;45010;53.640;10.578;2023-06-19T01:14:58;5.90;;;5.28;;
59239;SDS011;45010;53.640;10.578;2023-06-19T01:18:00;6.45;;;5.70;;
59239;SDS011;45010;53.640;10.578;2023-06-19T01:21:15;6.03;;;5.40;;
59239;SDS011;45010;53.640;10.578;2023-06-19T01:24:16;5.90;;;5.30;;
59239;SDS011;45010;53.640;10.578;2023-06-19T01:27:17;6.50;;;5.90;;
59239;SDS011;45010;53.640;10.578;2023-06-19T01:30:17;6.25;;;5.65;;
59239;SDS011;45010;53.640;10.578;2023-06-19T01:33:20;6.78;;;6.13;;
59239;SDS011;45010;53.640;10.578;2023-06-19T01:36:28;6.25;;;5.65;;
59239;SDS011;45010;53.640;10.578;2023-06-19T01:39:30;6.95;;;6.25;;
59239;SDS011;45010;53.640;10.578;2023-06-19T01:42:32;7.28;;;5.50;;
59239;SDS011;45010;53.640;10.578;2023-06-19T01:45:34;6.18;;;5.57;;
59239;SDS011;45010;53.640;10.578;2023-06-19T01:48:35;6.20;;;5.55;;
59239;SDS011;45010;53.640;10.578;2023-06-19T01:51:37;6.10;;;5.50;;
59239;SDS011;45010;53.640;10.578;2023-06-19T01:54:37;6.35;;;5.75;;
59239;SDS011;45010;53.640;10.578;2023-06-19T01:57:38;6.30;;;5.60;;
59239;SDS011;45010;53.640;10.578;2023-06-19T02:00:38;7.18;;;6.47;;
59239;SDS011;45010;53.640;10.578;2023-06-19T02:03:38;7.18;;;6.47;;
59239;SDS011;45010;53.640;10.578;2023-06-19T02:06:39;5.75;;;5.25;;
59239;SDS011;45010;53.640;10.578;2023-06-19T02:09:40;6.35;;;5.75;;
59239;SDS011;45010;53.640;10.578;2023-06-19T02:12:41;6.30;;;5.70;;
59239;SDS011;45010;53.640;10.578;2023-06-19T02:15:41;6.68;;;6.07;;
59239;SDS011;45010;53.640;10.578;2023-06-19T02:18:42;6.22;;;5.63;;
59239;SDS011;45010;53.640;10.578;2023-06-19T02:21:42;6.57;;;5.97;;
59239;SDS011;45010;53.640;10.578;2023-06-19T02:24:42;6.35;;;5.68;;
59239;SDS011;45010;53.640;10.578;2023-06-19T02:27:44;6.25;;;5.70;;
59239;SDS011;45010;53.640;10.578;2023-06-19T02:30:45;6.50;;;5.90;;
59239;SDS011;45010;53.640;10.578;2023-06-19T02:33:45;6.28;;;5.68;;
59239;SDS011;45010;53.640;10.578;2023-06-19T02:36:45;7.03;;;5.75;;
59239;SDS011;45010;53.640;10.578;2023-06-19T02:39:47;6.60;;;6.00;;
59239;SDS011;45010;53.640;10.578;2023-06-19T02:42:47;6.32;;;5.72;;
59239;SDS011;45010;53.640;10.578;2023-06-19T02:45:47;6.72;;;6.07;;
59239;SDS011;45010;53.640;10.578;2023-06-19T02:48:48;6.50;;;5.90;;
59239;SDS011;45010;53.640;10.578;2023-06-19T02:51:48;6.20;;;5.70;;
59239;SDS011;45010;53.640;10.578;2023-06-19T02:54:48;6.63;;;5.93;;
59239;SDS011;45010;53.640;10.578;2023-06-19T02:57:49;7.00;;;6.30;;
59239;SDS011;45010;53.640;10.578;2023-06-19T03:00:49;7.00;;;6.30;;
59239;SDS011;45010;53.640;10.578;2023-06-19T03:03:49;6.85;;;6.20;;
59239;SDS011;45010;53.640;10.578;2023-06-19T03:06:52;6.53;;;5.93;;
59239;SDS011;45010;53.640;10.578;2023-06-19T03:09:52;8.27;;;6.25;;
59239;SDS011;45010;53.640;10.578;2023-06-19T03:12:53;7.50;;;6.47;;
59239;SDS011;45010;53.640;10.578;2023-06-19T03:15:53;8.10;;;6.57;;
59239;SDS011;45010;53.640;10.578;2023-06-19T03:18:53;5.95;;;5.43;;
59239;SDS011;45010;53.640;10.578;2023-06-19T03:21:53;6.22;;;5.63;;
59239;SDS011;45010;53.640;10.578;2023-06-19T03:24:54;6.65;;;5.95;;
59239;SDS011;45010;53.640;10.578;2023-06-19T03:27:54;7.38;;;6.18;;
59239;SDS011;45010;53.640;10.578;2023-06-19T03:30:54;6.78;;;6.10;;
59239;SDS011;45010;53.640;10.578;2023-06-19T03:33:55;6.90;;;6.30;;
59239;SDS011;45010;53.640;10.578;2023-06-19T03:36:55;7.18;;;6.47;;
59239;SDS011;45010;53.640;10.578;2023-06-19T03:39:56;7.32;;;6.50;;
59239;SDS011;45010;53.640;10.578;2023-06-19T03:42:56;7.00;;;6.32;;
59239;SDS011;45010;53.640;10.578;2023-06-19T03:45:56;7.07;;;5.68;;
59239;SDS011;45010;53.640;10.578;2023-06-19T03:48:56;7.40;;;6.75;;
59239;SDS011;45010;53.640;10.578;2023-06-19T03:51:57;6.97;;;6.28;;
59239;SDS011;45010;53.640;10.578;2023-06-19T03:54:57;7.35;;;6.65;;
59239;SDS011;45010;53.640;10.578;2023-06-19T03:57:57;7.03;;;6.35;;
59239;SDS011;45010;53.640;10.578;2023-06-19T04:00:58;6.85;;;6.25;;
59239;SDS011;45010;53.640;10.578;2023-06-19T04:03:58;7.20;;;6.50;;
59239;SDS011;45010;53.640;10.578;2023-06-19T04:06:59;7.50;;;6.30;;
59239;SDS011;45010;53.640;10.578;2023-06-19T04:09:59;8.20;;;6.63;;
59239;SDS011;45010;53.640;10.578;2023-06-19T04:12:59;6.97;;;6.28;;
59239;SDS011;45010;53.640;10.578;2023-06-19T04:16:00;7.35;;;6.57;;
59239;SDS011;45010;53.640;10.578;2023-06-19T04:19:00;7.85;;;7.07;;
59239;SDS011;45010;53.640;10.578;2023-06-19T04:22:00;7.28;;;6.53;;
59239;SDS011;45010;53.640;10.578;2023-06-19T04:25:01;7.65;;;6.80;;
59239;SDS011;45010;53.640;10.578;2023-06-19T04:28:01;7.28;;;6.63;;
59239;SDS011;45010;53.640;10.578;2023-06-19T04:31:03;7.55;;;6.75;;
59239;SDS011;45010;53.640;10.578;2023-06-19T04:34:03;7.30;;;6.60;;
59239;SDS011;45010;53.640;10.578;2023-06-19T04:37:05;7.80;;;7.05;;
59239;SDS011;45010;53.640;10.578;2023-06-19T04:40:05;9.55;;;7.20;;
59239;SDS011;45010;53.640;10.578;2023-06-19T04:43:07;7.60;;;6.90;;
59239;SDS011;45010;53.640;10.578;2023-06-19T04:46:08;7.72;;;7.00;;
59239;SDS011;45010;53.640;10.578;2023-06-19T04:49:08;8.23;;;7.43;;
59239;SDS011;45010;53.640;10.578;2023-06-19T04:52:09;8.20;;;7.40;;
59239;SDS011;45010;53.640;10.578;2023-06-19T04:55:09;8.13;;;7.38;;
59239;SDS011;45010;53.640;10.578;2023-06-19T04:58:10;8.02;;;7.22;;
59239;SDS011;45010;53.640;10.578;2023-06-19T05:01:10;7.70;;;6.90;;
59239;SDS011;45010;53.640;10.578;2023-06-19T05:04:10;7.32;;;6.63;;
59239;SDS011;45010;53.640;10.578;2023-06-19T05:07:11;8.57;;;7.78;;
59239;SDS011;45010;53.640;10.578;2023-06-19T05:10:12;7.45;;;6.80;;
59239;SDS011;45010;53.640;10.578;2023-06-19T05:13:13;8.15;;;7.45;;
59239;SDS011;45010;53.640;10.578;2023-06-19T05:16:13;8.30;;;7.50;;
59239;SDS011;45010;53.640;10.578;2023-06-19T05:19:16;8.63;;;7.82;;
59239;SDS011;45010;53.640;10.578;2023-06-19T05:22:16;9.30;;;8.25;;
59239;SDS011;45010;53.640;10.578;2023-06-19T05:25:18;8.45;;;7.50;;
59239;SDS011;45010;53.640;10.578;2023-06-19T05:28:18;8.90;;;8.00;;
59239;SDS011;45010;53.640;10.578;2023-06-19T05:31:19;7.55;;;6.85;;
59239;SDS011;45010;53.640;10.578;2023-06-19T05:34:19;8.32;;;7.07;;
59239;SDS011;45010;53.640;10.578;2023-06-19T05:37:20;8.88;;;7.85;;
59239;SDS011;45010;53.640;10.578;2023-06-19T05:40:22;9.32;;;7.35;;
59239;SDS011;45010;53.640;10.578;2023-06-19T05:43:22;8.55;;;7.30;;
59239;SDS011;45010;53.640;10.578;2023-06-19T05:46:24;7.93;;;7.22;;
59239;SDS011;45010;53.640;10.578;2023-06-19T05:49:24;8.25;;;7.45;;
59239;SDS011;45010;53.640;10.578;2023-06-19T05:52:25;8.07;;;7.38;;
59239;SDS011;45010;53.640;10.578;2023-06-19T05:55:25;8.43;;;7.63;;
59239;SDS011;45010;53.640;10.578;2023-06-19T05:58:27;8.35;;;7.53;;
59239;SDS011;45010;53.640;10.578;2023-06-19T06:01:28;8.55;;;7.75;;
59239;SDS011;45010;53.640;10.578;2023-06-19T06:04:29;10.30;;;8.35;;
59239;SDS011;45010;53.640;10.578;2023-06-19T06:07:30;7.70;;;7.00;;
59239;SDS011;45010;53.640;10.578;2023-06-19T06:10:30;8.38;;;7.57;;
59239;SDS011;45010;53.640;10.578;2023-06-19T06:13:31;8.95;;;8.07;;
59239;SDS011;45010;53.640;10.578;2023-06-19T06:16:31;7.78;;;6.95;;
59239;SDS011;45010;53.640;10.578;2023-06-19T06:19:31;7.72;;;7.03;;
59239;SDS011;45010;53.640;10.578;2023-06-19T06:22:32;8.20;;;7.50;;
59239;SDS011;45010;53.640;10.578;2023-06-19T06:25:32;8.63;;;7.53;;
59239;SDS011;45010;53.640;10.578;2023-06-19T06:28:32;8.68;;;7.20;;
59239;SDS011;45010;53.640;10.578;2023-06-19T06:31:33;13.73;;;7.28;;
59239;SDS011;45010;53.640;10.578;2023-06-19T06:34:34;12.75;;;7.70;;
59239;SDS011;45010;53.640;10.578;2023-06-19T06:37:34;10.10;;;7.82;;
59239;SDS011;45010;53.640;10.578;2023-06-19T06:40:35;11.85;;;8.02;;
59239;SDS011;45010;53.640;10.578;2023-06-19T06:43:35;10.43;;;8.25;;
59239;SDS011;45010;53.640;10.578;2023-06-19T06:46:35;11.38;;;8.38;;
59239;SDS011;45010;53.640;10.578;2023-06-19T06:49:36;11.10;;;8.32;;
59239;SDS011;45010;53.640;10.578;2023-06-19T06:52:36;8.43;;;7.63;;
59239;SDS011;45010;53.640;10.578;2023-06-19T06:55:37;9.77;;;7.88;;
59239;SDS011;45010;53.640;10.578;2023-06-19T06:58:37;10.15;;;9.25;;
59239;SDS011;45010;53.640;10.578;2023-06-19T07:01:39;10.73;;;9.18;;
59239;SDS011;45010;53.640;10.578;2023-06-19T07:04:39;9.90;;;8.93;;
59239;SDS011;45010;53.640;10.578;2023-06-19T07:07:39;10.40;;;9.20;;
59239;SDS011;45010;53.640;10.578;2023-06-19T07:10:40;10.68;;;9.57;;
59239;SDS011;45010;53.640;10.578;2023-06-19T07:13:40;11.27;;;10.27;;
59239;SDS011;45010;53.640;10.578;2023-06-19T07:16:41;11.25;;;10.02;;
59239;SDS011;45010;53.640;10.578;2023-06-19T07:19:41;12.95;;;10.27;;
59239;SDS011;45010;53.640;10.578;2023-06-19T07:22:42;11.25;;;9.85;;
59239;SDS011;45010;53.640;10.578;2023-06-19T07:25:43;10.68;;;9.60;;
59239;SDS011;45010;53.640;10.578;2023-06-19T07:28:45;10.90;;;9.77;;
59239;SDS011;45010;53.640;10.578;2023-06-19T07:31:46;10.82;;;9.88;;
59239;SDS011;45010;53.640;10.578;2023-06-19T07:34:46;11.95;;;10.05;;
59239;SDS011;45010;53.640;10.578;2023-06-19T07:37:46;12.82;;;10.35;;
59239;SDS011;45010;53.640;10.578;2023-06-19T07:40:47;10.68;;;9.68;;
59239;SDS011;45010;53.640;10.578;2023-06-19T07:43:47;12.35;;;11.07;;
59239;SDS011;45010;53.640;10.578;2023-06-19T07:46:47;12.02;;;10.93;;
59239;SDS011;45010;53.640;10.578;2023-06-19T07:49:48;12.02;;;10.80;;
59239;SDS011;45010;53.640;10.578;2023-06-19T07:52:48;12.27;;;10.30;;
59239;SDS011;45010;53.640;10.578;2023-06-19T07:55:48;11.82;;;10.63;;
59239;SDS011;45010;53.640;10.578;2023-06-19T07:58:49;10.25;;;9.35;;
59239;SDS011;45010;53.640;10.578;2023-06-19T08:01:49;11.18;;;10.18;;
59239;SDS011;45010;53.640;10.578;2023-06-19T08:04:49;11.85;;;10.65;;
59239;SDS011;45010;53.640;10.578;2023-06-19T08:07:50;11.63;;;10.30;;
59239;SDS011;45010;53.640;10.578;2023-06-19T08:10:50;11.40;;;10.32;;
59239;SDS011;45010;53.640;10.578;2023-06-19T08:13:50;11.88;;;10.85;;
59239;SDS011;45010;53.640;10.578;2023-06-19T08:16:51;12.63;;;11.43;;
59239;SDS011;45010;53.640;10.578;2023-06-19T08:19:51;11.45;;;10.45;;
59239;SDS011;45010;53.640;10.578;2023-06-19T08:22:51;11.98;;;10.98;;
59239;SDS011;45010;53.640;10.578;2023-06-19T08:25:52;11.50;;;10.45;;
59239;SDS011;45010;53.640;10.578;2023-06-19T08:28:52;12.25;;;11.02;;
59239;SDS011;45010;53.640;10.578;2023-06-19T08:31:52;12.10;;;10.85;;
59239;SDS011;45010;53.640;10.578;2023-06-19T08:34:53;11.68;;;10.57;;
59239;SDS011;45010;53.640;10.578;2023-06-19T08:37:53;13.15;;;11.15;;
59239;SDS011;45010;53.640;10.578;2023-06-19T08:40:54;13.15;;;11.00;;
59239;SDS011;45010;53.640;10.578;2023-06-19T08:43:55;11.82;;;10.55;;
59239;SDS011;45010;53.640;10.578;2023-06-19T08:46:57;11.70;;;10.55;;
59239;SDS011;45010;53.640;10.578;2023-06-19T08:49:58;10.63;;;9.55;;
59239;SDS011;45010;53.640;10.578;2023-06-19T08:52:58;11.65;;;10.45;;
59239;SDS011;45010;53.640;10.578;2023-06-19T08:55:59;11.77;;;10.43;;
59239;SDS011;45010;53.640;10.578;2023-06-19T08:59:15;11.05;;;9.95;;
59239;SDS011;45010;53.640;10.578;2023-06-19T09:02:17;12.07;;;10.35;;
59239;SDS011;45010;53.640;10.578;2023-06-19T09:05:18;11.52;;;10.40;;
59239;SDS011;45010;53.640;10.578;2023-06-19T09:08:19;11.38;;;10.25;;
59239;SDS011;45010;53.640;10.578;2023-06-19T09:11:20;10.98;;;9.98;;
59239;SDS011;45010;53.640;10.578;2023-06-19T09:14:23;11.55;;;10.45;;
59239;SDS011;45010;53.640;10.578;2023-06-19T09:17:24;11.57;;;9.95;;
59239;SDS011;45010;53.640;10.578;2023-06-19T09:20:27;11.00;;;10.00;;
59239;SDS011;45010;53.640;10.578;2023-06-19T09:23:28;11.60;;;10.15;;
59239;SDS011;45010;53.640;10.578;2023-06-19T09:26:28;13.57;;;8.88;;
59239;SDS011;45010;53.640;10.578;2023-06-19T09:29:29;10.57;;;9.48;;
59239;SDS011;45010;53.640;10.578;2023-06-19T09:32:30;11.07;;;9.95;;
59239;SDS011;45010;53.640;10.578;2023-06-19T09:35:30;10.45;;;9.35;;
59239;SDS011;45010;53.640;10.578;2023-06-19T09:38:37;10.52;;;9.52;;
59239;SDS011;45010;53.640;10.578;2023-06-19T09:41:39;10.32;;;9.38;;
59239;SDS011;45010;53.640;10.578;2023-06-19T09:44:41;11.90;;;9.60;;
59239;SDS011;45010;53.640;10.578;2023-06-19T09:47:43;10.85;;;9.82;;
59239;SDS011;45010;53.640;10.578;2023-06-19T09:50:45;9.57;;;8.68;;
59239;SDS011;45010;53.640;10.578;2023-06-19T09:53:50;9.98;;;8.77;;
59239;SDS011;45010;53.640;10.578;2023-06-19T09:56:54;9.98;;;8.77;;
59239;SDS011;45010;53.640;10.578;2023-06-19T09:59:58;10.45;;;9.00;;
59239;SDS011;45010;53.640;10.578;2023-06-19T10:03:12;10.20;;;9.18;;
59239;SDS011;45010;53.640;10.578;2023-06-19T10:06:14;11.20;;;10.10;;
59239;SDS011;45010;53.640;10.578;2023-06-19T10:09:16;10.30;;;9.40;;
59239;SDS011;45010;53.640;10.578;2023-06-19T10:12:19;10.63;;;8.40;;
59239;SDS011;45010;53.640;10.578;2023-06-19T10:15:20;9.93;;;9.02;;
59239;SDS011;45010;53.640;10.578;2023-06-19T10:18:28;9.38;;;8.57;;
59239;SDS011;45010;53.640;10.578;2023-06-19T10:21:28;9.95;;;9.05;;
59239;SDS011;45010;53.640;10.578;2023-06-19T10:24:28;9.68;;;8.13;;
59239;SDS011;45010;53.640;10.578;2023-06-19T10:27:33;8.60;;;7.80;;
59239;SDS011;45010;53.640;10.578;2023-06-19T10:30:37;9.88;;;7.85;;
59239;SDS011;45010;53.640;10.578;2023-06-19T10:33:37;9.18;;;8.35;;
59239;SDS011;45010;53.640;10.578;2023-06-19T10:36:40;11.48;;;8.18;;
59239;SDS011;45010;53.640;10.578;2023-06-19T10:39:40;11.45;;;7.93;;
59239;SDS011;45010;53.640;10.578;2023-06-19T10:42:40;9.25;;;8.35;;
59239;SDS011;45010;53.640;10.578;2023-06-19T10:45:41;10.57;;;8.18;;
59239;SDS011;45010;53.640;10.578;2023-06-19T10:48:41;10.32;;;8.68;;
59239;SDS011;45010;53.640;10.578;2023-06-19T10:51:42;8.52;;;7.72;;
59239;SDS011;45010;53.640;10.578;2023-06-19T10:54:43;10.68;;;8.02;;
59239;SDS011;45010;53.640;10.578;2023-06-19T10:57:44;8.35;;;7.55;;
59239;SDS011;45010;53.640;10.578;2023-06-19T11:00:45;9.40;;;7.78;;
59239;SDS011;45010;53.640;10.578;2023-06-19T11:03:45;8.52;;;7.72;;
59239;SDS011;45010;53.640;10.578;2023-06-19T11:06:46;8.85;;;7.70;;
59239;SDS011;45010;53.640;10.578;2023-06-19T11:09:48;8.93;;;8.00;;
59239;SDS011;45010;53.640;10.578;2023-06-19T11:12:58;8.23;;;7.53;;
59239;SDS011;45010;53.640;10.578;2023-06-19T11:15:58;9.20;;;7.65;;
59239;SDS011;45010;53.640;10.578;2023-06-19T11:18:59;9.43;;;7.55;;
59239;SDS011;45010;53.640;10.578;2023-06-19T11:22:00;9.20;;;8.30;;
59239;SDS011;45010;53.640;10.578;2023-06-19T11:25:03;8.82;;;7.65;;
59239;SDS011;45010;53.640;10.578;2023-06-19T11:28:04;8.38;;;7.30;;
59239;SDS011;45010;53.640;10.578;2023-06-19T11:31:10;8.88;;;7.97;;
59239;SDS011;45010;53.640;10.578;2023-06-19T11:34:11;10.25;;;8.10;;
59239;SDS011;45010;53.640;10.578;2023-06-19T11:37:12;8.40;;;7.38;;
59239;SDS011;45010;53.640;10.578;2023-06-19T11:40:17;8.20;;;7.50;;
59239;SDS011;45010;53.640;10.578;2023-06-19T11:43:24;8.73;;;7.93;;
59239;SDS011;45010;53.640;10.578;2023-06-19T11:46:28;8.27;;;7.28;;
59239;SDS011;45010;53.640;10.578;2023-06-19T11:49:34;9.77;;;8.75;;
59239;SDS011;45010;53.640;10.578;2023-06-19T11:52:35;9.45;;;7.95;;
59239;SDS011;45010;53.640;10.578;2023-06-19T11:55:35;9.27;;;7.38;;
59239;SDS011;45010;53.640;10.578;2023-06-19T11:58:36;9.63;;;7.28;;
59239;SDS011;45010;53.640;10.578;2023-06-19T12:01:36;8.63;;;6.60;;
59239;SDS011;45010;53.640;10.578;2023-06-19T12:04:37;8.85;;;7.65;;
59239;SDS011;45010;53.640;10.578;2023-06-19T12:07:37;8.57;;;6.82;;
59239;SDS011;45010;53.640;10.578;2023-06-19T12:10:38;7.47;;;6.60;;
59239;SDS011;45010;53.640;10.578;2023-06-19T12:13:40;8.27;;;7.47;;
59239;SDS011;45010;53.640;10.578;2023-06-19T12:16:41;11.52;;;7.40;;
59239;SDS011;45010;53.640;10.578;2023-06-19T12:19:41;8.13;;;7.25;;
59239;SDS011;45010;53.640;10.578;2023-06-19T12:22:41;9.00;;;7.55;;
59239;SDS011;45010;53.640;10.578;2023-06-19T12:25:42;9.25;;;7.50;;
59239;SDS011;45010;53.640;10.578;2023-06-19T12:28:43;8.77;;;7.88;;
59239;SDS011;45010;53.640;10.578;2023-06-19T12:31:43;11.63;;;7.82;;
59239;SDS011;45010;53.640;10.578;2023-06-19T12:34:43;9.02;;;7.35;;
59239;SDS011;45010;53.640;10.578;2023-06-19T12:37:46;8.80;;;7.90;;
59239;SDS011;45010;53.640;10.578;2023-06-19T12:40:46;8.02;;;7.22;;
59239;SDS011;45010;53.640;10.578;2023-06-19T12:43:47;8.50;;;7.57;;
59239;SDS011;45010;53.640;10.578;2023-06-19T12:46:47;10.65;;;7.32;;
59239;SDS011;45010;53.640;10.578;2023-06-19T12:49:47;8.02;;;7.28;;
59239;SDS011;45010;53.640;10.578;2023-06-19T12:52:48;7.72;;;6.97;;
59239;SDS011;45010;53.640;10.578;2023-06-19T12:55:48;8.82;;;7.22;;
59239;SDS011;45010;53.640;10.578;2023-06-19T12:58:49;8.82;;;7.95;;
59239;SDS011;45010;53.640;10.578;2023-06-19T13:01:49;7.80;;;7.10;;
59239;SDS011;45010;53.640;10.578;2023-06-19T13:04:49;8.10;;;7.30;;
59239;SDS011;45010;53.640;10.578;2023-06-19T13:07:50;8.35;;;7.55;;
59239;SDS011;45010;53.640;10.578;2023-06-19T13:10:50;10.35;;;7.15;;
59239;SDS011;45010;53.640;10.578;2023-06-19T13:13:50;8.95;;;8.05;;
59239;SDS011;45010;53.640;10.578;2023-06-19T13:16:51;8.20;;;6.85;;
59239;SDS011;45010;53.640;10.578;2023-06-19T13:19:51;9.57;;;7.50;;
59239;SDS011;45010;53.640;10.578;2023-06-19T13:22:51;7.50;;;6.65;;
59239;SDS011;45010;53.640;10.578;2023-06-19T13:25:53;7.47;;;6.78;;
59239;SDS011;45010;53.640;10.578;2023-06-19T13:28:53;7.95;;;7.25;;
59239;SDS011;45010;53.640;10.578;2023-06-19T13:31:53;7.47;;;6.78;;
59239;SDS011;45010;53.640;10.578;2023-06-19T13:34:54;8.35;;;7.28;;
59239;SDS011;45010;53.640;10.578;2023-06-19T13:37:55;8.18;;;7.45;;
59239;SDS011;45010;53.640;10.578;2023-06-19T13:40:55;8.00;;;6.90;;
59239;SDS011;45010;53.640;10.578;2023-06-19T13:43:55;8.40;;;7.53;;
59239;SDS011;45010;53.640;10.578;2023-06-19T13:46:56;8.55;;;7.75;;
59239;SDS011;45010;53.640;10.578;2023-06-19T13:49:56;8.13;;;7.32;;
59239;SDS011;45010;53.640;10.578;2023-06-19T13:52:57;9.10;;;7.30;;
59239;SDS011;45010;53.640;10.578;2023-06-19T13:55:57;8.95;;;7.07;;
59239;SDS011;45010;53.640;10.578;2023-06-19T13:58:58;8.25;;;7.45;;
59239;SDS011;45010;53.640;10.578;2023-06-19T14:01:58;7.72;;;6.93;;
59239;SDS011;45010;53.640;10.578;2023-06-19T14:04:59;8.48;;;7.60;;
59239;SDS011;45010;53.640;10.578;2023-06-19T14:08:00;8.52;;;7.25;;
59239;SDS011;45010;53.640;10.578;2023-06-19T14:11:00;9.20;;;7.10;;
59239;SDS011;45010;53.640;10.578;2023-06-19T14:14:01;7.28;;;6.65;;
59239;SDS011;45010;53.640;10.578;2023-06-19T14:17:01;7.63;;;6.93;;
59239;SDS011;45010;53.640;10.578;2023-06-19T14:20:01;7.30;;;6.70;;
59239;SDS011;45010;53.640;10.578;2023-06-19T14:23:04;8.50;;;6.80;;
59239;SDS011;45010;53.640;10.578;2023-06-19T14:26:04;7.63;;;6.82;;
59239;SDS011;45010;53.640;10.578;2023-06-19T14:29:05;7.80;;;7.00;;
59239;SDS011;45010;53.640;10.578;2023-06-19T14:32:05;7.53;;;6.70;;
59239;SDS011;45010;53.640;10.578;2023-06-19T14:35:05;10.40;;;7.63;;
59239;SDS011;45010;53.640;10.578;2023-06-19T14:38:06;7.10;;;6.40;;
59239;SDS011;45010;53.640;10.578;2023-06-19T14:41:07;8.07;;;7.18;;
59239;SDS011;45010;53.640;10.578;2023-06-19T14:44:07;7.97;;;6.70;;
59239;SDS011;45010;53.640;10.578;2023-06-19T14:47:07;7.72;;;7.03;;
59239;SDS011;45010;53.640;10.578;2023-06-19T14:50:08;8.55;;;7.20;;
59239;SDS011;45010;53.640;10.578;2023-06-19T14:53:08;11.23;;;7.10;;
59239;SDS011;45010;53.640;10.578;2023-06-19T14:56:08;7.65;;;6.72;;
59239;SDS011;45010;53.640;10.578;2023-06-19T14:59:09;7.78;;;6.35;;
59239;SDS011;45010;53.640;10.578;2023-06-19T15:02:09;7.70;;;6.82;;
59239;SDS011;45010;53.640;10.578;2023-06-19T15:05:11;7.18;;;6.32;;
59239;SDS011;45010;53.640;10.578;2023-06-19T15:08:11;7.38;;;6.55;;
59239;SDS011;45010;53.640;10.578;2023-06-19T15:11:12;9.07;;;6.97;;
59239;SDS011;45010;53.640;10.578;2023-06-19T15:14:12;7.05;;;6.40;;
59239;SDS011;45010;53.640;10.578;2023-06-19T15:17:12;7.10;;;5.95;;
59239;SDS011;45010;53.640;10.578;2023-06-19T15:20:12;9.60;;;7.30;;
59239;SDS011;45010;53.640;10.578;2023-06-19T15:23:16;6.72;;;6.13;;
59239;SDS011;45010;53.640;10.578;2023-06-19T15:26:17;7.45;;;6.75;;
59239;SDS011;45010;53.640;10.578;2023-06-19T15:29:17;6.97;;;6.28;;
59239;SDS011;45010;53.640;10.578;2023-06-19T15:32:17;7.28;;;6.07;;
59239;SDS011;45010;53.640;10.578;2023-06-19T15:35:18;7.45;;;6.40;;
59239;SDS011;45010;53.640;10.578;2023-06-19T15:38:19;9.68;;;6.78;;
59239;SDS011;45010;53.640;10.578;2023-06-19T15:41:20;8.20;;;6.38;;
59239;SDS011;45010;53.640;10.578;2023-06-19T15:44:20;6.78;;;6.15;;
59239;SDS011;45010;53.640;10.578;2023-06-19T15:47:21;10.68;;;6.80;;
59239;SDS011;45010;53.640;10.578;2023-06-19T15:50:21;9.02;;;6.07;;
59239;SDS011;45010;53.640;10.578;2023-06-19T15:53:22;8.45;;;6.10;;
59239;SDS011;45010;53.640;10.578;2023-06-19T15:56:22;6.30;;;5.65;;
59239;SDS011;45010;53.640;10.578;2023-06-19T15:59:22;10.00;;;7.05;;
59239;SDS011;45010;53.640;10.578;2023-06-19T16:02:22;10.60;;;5.60;;
59239;SDS011;45010;53.640;10.578;2023-06-19T16:05:23;10.40;;;6.07;;
59239;SDS011;45010;53.640;10.578;2023-06-19T16:08:25;9.63;;;5.78;;
59239;SDS011;45010;53.640;10.578;2023-06-19T16:11:26;7.78;;;5.65;;
59239;SDS011;45010;53.640;10.578;2023-06-19T16:14:26;6.10;;;5.47;;
59239;SDS011;45010;53.640;10.578;2023-06-19T16:17:26;10.40;;;5.45;;
59239;SDS011;45010;53.640;10.578;2023-06-19T16:20:27;6.28;;;4.95;;
59239;SDS011;45010;53.640;10.578;2023-06-19T16:23:27;12.18;;;7.00;;
59239;SDS011;45010;53.640;10.578;2023-06-19T16:26:28;6.07;;;5.57;;
59239;SDS011;45010;53.640;10.578;2023-06-19T16:29:28;5.38;;;4.88;;
59239;SDS011;45010;53.640;10.578;2023-06-19T16:32:28;6.38;;;5.45;;
59239;SDS011;45010;53.640;10.578;2023-06-19T16:35:29;6.60;;;4.80;;
59239;SDS011;45010;53.640;10.578;2023-06-19T16:38:29;6.30;;;5.53;;
59239;SDS011;45010;53.640;10.578;2023-06-19T16:41:29;6.55;;;5.50;;
59239;SDS011;45010;53.640;10.578;2023-06-19T16:44:30;6.65;;;5.65;;
59239;SDS011;45010;53.640;10.578;2023-06-19T16:47:30;6.00;;;5.40;;
59239;SDS011;45010;53.640;10.578;2023-06-19T16:50:30;7.82;;;5.82;;
59239;SDS011;45010;53.640;10.578;2023-06-19T16:53:31;6.72;;;5.95;;
59239;SDS011;45010;53.640;10.578;2023-06-19T16:56:31;7.10;;;6.13;;
59239;SDS011;45010;53.640;10.578;2023-06-19T16:59:32;8.98;;;5.68;;
59239;SDS011;45010;53.640;10.578;2023-06-19T17:02:32;8.32;;;5.57;;
59239;SDS011;45010;53.640;10.578;2023-06-19T17:05:33;7.75;;;5.50;;
59239;SDS011;45010;53.640;10.578;2023-06-19T17:08:33;6.40;;;5.80;;
59239;SDS011;45010;53.640;10.578;2023-06-19T17:11:33;5.97;;;5.47;;
59239;SDS011;45010;53.640;10.578;2023-06-19T17:14:34;6.05;;;5.22;;
59239;SDS011;45010;53.640;10.578;2023-06-19T17:17:34;5.40;;;4.90;;
59239;SDS011;45010;53.640;10.578;2023-06-19T17:20:34;5.63;;;5.05;;
59239;SDS011;45010;53.640;10.578;2023-06-19T17:23:35;5.88;;;5.28;;
59239;SDS011;45010;53.640;10.578;2023-06-19T17:26:35;5.75;;;4.78;;
59239;SDS011;45010;53.640;10.578;2023-06-19T17:29:35;6.05;;;5.43;;
59239;SDS011;45010;53.640;10.578;2023-06-19T17:32:36;6.25;;;4.65;;
59239;SDS011;45010;53.640;10.578;2023-06-19T17:35:37;5.50;;;5.00;;
59239;SDS011;45010;53.640;10.578;2023-06-19T17:38:37;6.88;;;5.00;;
59239;SDS011;45010;53.640;10.578;2023-06-19T17:41:38;5.47;;;4.97;;
59239;SDS011;45010;53.640;10.578;2023-06-19T17:44:38;4.45;;;4.03;;
59239;SDS011;45010;53.640;10.578;2023-06-19T17:47:38;5.45;;;4.95;;
59239;SDS011;45010;53.640;10.578;2023-06-19T17:50:38;4.85;;;4.38;;
59239;SDS011;45010;53.640;10.578;2023-06-19T17:53:39;4.70;;;4.38;;